In Rescue
 
Open Full Screen Window  High Contrast Mode
Wind Gusting 00 knots
04
June 26, 2019 9:53 PM EDT
Weather Information
Wind Direction
  210 °
Wind Speed
  04 kt (5 mph)
Wind Gust
  00 kt (0 mph)
Altimeter
30.12 in
Visibility
10 SM
Temperature
26° C
79° F
Dewpoint
18° C
64° F
Humidity
61%
1hr Rain Fall
00.00 in.
24hr Rain Fall
00.00 in.
Sky Condition
Scattered @ 9,000 ft
Scattered @ 8,000 ft
Scattered @ 7,000 ft
VFR

METAR KDLZ 270153Z AUTO 21004KT 10SM SCT070 SCT080 SCT090 26/18 A3012 RMK AO2 LTG DSNT SW

FAA Disclaimer: The data displayed is for advisory purposes only and is not to be used for flight planning or operations.